createdAt,value
2019-02-06T00:01:10.261Z,-3.78
2019-02-06T00:03:38.488Z,-3.77
2019-02-06T00:06:07.134Z,-3.78
2019-02-06T00:08:35.329Z,-3.82
2019-02-06T00:11:03.535Z,-3.81
2019-02-06T00:13:32.079Z,-3.83
2019-02-06T00:16:00.295Z,-3.85
2019-02-06T00:18:28.471Z,-3.86
2019-02-06T00:20:56.729Z,-3.89
2019-02-06T00:23:24.921Z,-3.92
2019-02-06T00:25:53.140Z,-3.92
2019-02-06T00:28:21.329Z,-3.94
2019-02-06T00:30:49.892Z,-3.92
2019-02-06T00:33:18.089Z,-3.91
2019-02-06T00:35:46.277Z,-3.89
2019-02-06T00:38:14.461Z,-3.87
2019-02-06T00:40:42.646Z,-3.91
2019-02-06T00:43:10.833Z,-3.91
2019-02-06T00:45:39.013Z,-3.91
2019-02-06T00:48:07.206Z,-3.91
2019-02-06T00:50:35.395Z,-3.92
2019-02-06T00:53:03.697Z,-3.90
2019-02-06T00:55:31.882Z,-3.91
2019-02-06T00:58:00.134Z,-3.93
2019-02-06T01:00:28.318Z,-3.98
2019-02-06T01:02:56.887Z,-3.97
2019-02-06T01:05:25.074Z,-3.99
2019-02-06T01:07:53.263Z,-3.98
2019-02-06T01:10:21.530Z,-3.98
2019-02-06T01:12:49.729Z,-3.99
2019-02-06T01:15:17.913Z,-3.99
2019-02-06T01:17:46.118Z,-4.00
2019-02-06T01:20:17.200Z,-3.98
2019-02-06T01:22:45.390Z,-3.97
2019-02-06T01:25:17.705Z,-3.98
2019-02-06T01:27:45.885Z,-4.01
2019-02-06T01:30:17.482Z,-4.02
2019-02-06T01:32:45.675Z,-4.05
2019-02-06T01:35:14.609Z,-4.03
2019-02-06T01:37:42.830Z,-3.99
2019-02-06T01:40:14.022Z,-3.99
2019-02-06T01:42:42.300Z,-3.99
2019-02-06T01:45:13.300Z,-3.97
2019-02-06T01:47:41.497Z,-3.97
2019-02-06T01:50:12.180Z,-4.02
2019-02-06T01:52:40.436Z,-3.99
2019-02-06T01:55:13.113Z,-4.04
2019-02-06T01:57:41.293Z,-4.04
2019-02-06T02:00:18.169Z,-4.04
2019-02-06T02:02:46.350Z,-4.01
2019-02-06T02:05:16.159Z,-4.02
2019-02-06T02:07:44.343Z,-4.05
2019-02-06T02:10:12.534Z,-4.10
2019-02-06T02:12:40.722Z,-4.11
2019-02-06T02:15:12.005Z,-4.13
2019-02-06T02:17:40.199Z,-4.14
2019-02-06T02:20:17.551Z,-4.14
2019-02-06T02:22:45.737Z,-4.14
2019-02-06T02:25:13.926Z,-4.12
2019-02-06T02:27:42.196Z,-4.10
2019-02-06T02:30:13.479Z,-4.12
2019-02-06T02:32:41.663Z,-4.11
2019-02-06T02:35:10.026Z,-4.13
2019-02-06T02:37:38.210Z,-4.15
2019-02-06T02:40:09.134Z,-4.15
2019-02-06T02:42:37.396Z,-4.15
2019-02-06T02:45:11.693Z,-4.15
2019-02-06T02:47:39.872Z,-4.15
2019-02-06T02:50:10.109Z,-4.15
2019-02-06T02:52:38.282Z,-4.15
2019-02-06T02:55:08.715Z,-4.21
2019-02-06T02:57:36.902Z,-4.22
2019-02-06T03:00:18.017Z,-4.26
2019-02-06T03:03:04.125Z,-4.26
2019-02-06T03:05:33.877Z,-4.22
2019-02-06T03:08:02.061Z,-4.19
2019-02-06T03:10:30.256Z,-4.16
2019-02-06T03:12:58.437Z,-4.15
2019-02-06T03:15:26.637Z,-4.13
2019-02-06T03:17:54.827Z,-4.16
2019-02-06T03:20:23.025Z,-4.17
2019-02-06T03:22:51.207Z,-4.20
2019-02-06T03:25:19.400Z,-4.23
2019-02-06T03:27:47.595Z,-4.25
2019-02-06T03:30:17.649Z,-4.26
2019-02-06T03:32:45.839Z,-4.28
2019-02-06T03:35:14.389Z,-4.31
2019-02-06T03:37:42.587Z,-4.31
2019-02-06T03:40:16.325Z,-4.28
2019-02-06T03:42:44.522Z,-4.31
2019-02-06T03:45:13.444Z,-4.33
2019-02-06T03:47:41.632Z,-4.34
2019-02-06T03:50:15.380Z,-4.34
2019-02-06T03:52:43.583Z,-4.35
2019-02-06T03:55:12.452Z,-4.33
2019-02-06T03:57:40.657Z,-4.33
2019-02-06T04:00:14.645Z,-4.34
2019-02-06T04:02:42.830Z,-4.35
2019-02-06T04:05:11.845Z,-4.34
2019-02-06T04:07:40.102Z,-4.41
2019-02-06T04:10:13.775Z,-4.37
2019-02-06T04:12:41.958Z,-4.37
2019-02-06T04:15:10.388Z,-4.38
2019-02-06T04:17:38.593Z,-4.36
2019-02-06T04:20:09.781Z,-4.39
2019-02-06T04:22:38.012Z,-4.39
2019-02-06T04:25:07.633Z,-4.37
2019-02-06T04:27:35.802Z,-4.36
2019-02-06T04:30:05.457Z,-4.35
2019-02-06T04:32:33.661Z,-4.33
2019-02-06T04:35:01.852Z,-4.34
2019-02-06T04:37:30.036Z,-4.35
2019-02-06T04:39:58.218Z,-4.38
2019-02-06T04:42:26.424Z,-4.41
2019-02-06T04:44:54.600Z,-4.44
2019-02-06T04:47:23.178Z,-4.45
2019-02-06T04:49:51.422Z,-4.50
2019-02-06T04:52:19.649Z,-4.48
2019-02-06T04:54:47.851Z,-4.46
2019-02-06T04:57:16.042Z,-4.43
2019-02-06T04:59:44.237Z,-4.41
2019-02-06T05:02:12.416Z,-4.42
2019-02-06T05:04:40.879Z,-4.47
2019-02-06T05:07:18.767Z,-4.45
2019-02-06T05:09:38.977Z,-4.42
2019-02-06T05:12:09.585Z,-4.40
2019-02-06T05:14:37.124Z,-4.39
2019-02-06T05:17:05.323Z,-4.38
2019-02-06T05:19:33.506Z,-4.38
2019-02-06T05:22:01.971Z,-4.38
2019-02-06T05:24:30.166Z,-4.33
2019-02-06T05:26:58.339Z,-4.33
2019-02-06T05:29:26.527Z,-4.31
2019-02-06T05:31:54.730Z,-4.31
2019-02-06T05:34:22.927Z,-4.34
2019-02-06T05:36:51.195Z,-4.34
2019-02-06T05:39:19.382Z,-4.34
2019-02-06T05:41:47.568Z,-4.35
2019-02-06T05:44:15.776Z,-4.36
2019-02-06T05:46:44.020Z,-4.38
2019-02-06T05:49:12.215Z,-4.37
2019-02-06T05:51:40.391Z,-4.37
2019-02-06T05:54:11.154Z,-4.38
2019-02-06T05:56:38.497Z,-4.37
2019-02-06T05:59:06.681Z,-4.35
2019-02-06T06:01:34.884Z,-4.34
2019-02-06T06:04:03.065Z,-4.32
2019-02-06T06:06:31.256Z,-4.32
2019-02-06T06:08:59.443Z,-4.31
2019-02-06T06:11:27.638Z,-4.32
2019-02-06T06:13:56.092Z,-4.32
2019-02-06T06:16:24.279Z,-4.32
2019-02-06T06:18:52.467Z,-4.32
2019-02-06T06:21:20.651Z,-4.34
2019-02-06T06:23:48.847Z,-4.35
2019-02-06T06:26:17.055Z,-4.35
2019-02-06T06:28:45.245Z,-4.33
2019-02-06T06:31:13.803Z,-4.33
2019-02-06T06:33:41.987Z,-4.33
2019-02-06T06:36:10.179Z,-4.30
2019-02-06T06:38:38.389Z,-4.29
2019-02-06T06:41:06.609Z,-4.28
2019-02-06T06:43:34.800Z,-4.29
2019-02-06T06:46:03.047Z,-4.31
2019-02-06T06:48:33.411Z,-4.32
2019-02-06T06:51:01.609Z,-4.33
2019-02-06T06:53:29.804Z,-4.34
2019-02-06T06:55:57.983Z,-4.30
2019-02-06T06:58:26.162Z,-4.30
2019-02-06T07:00:55.337Z,-4.32
2019-02-06T07:03:23.532Z,-4.33
2019-02-06T07:05:51.729Z,-4.36
2019-02-06T07:08:19.915Z,-4.38
2019-02-06T07:10:48.106Z,-4.33
2019-02-06T07:13:16.295Z,-4.29
2019-02-06T07:15:44.477Z,-4.25
2019-02-06T07:18:14.570Z,-4.21
2019-02-06T07:20:43.046Z,-4.21
2019-02-06T07:23:11.225Z,-4.21
2019-02-06T07:25:39.406Z,-4.15
2019-02-06T07:28:07.597Z,-4.11
2019-02-06T07:30:36.221Z,-4.12
2019-02-06T07:33:04.416Z,-4.12
2019-02-06T07:35:32.603Z,-4.13
2019-02-06T07:38:01.069Z,-4.12
2019-02-06T07:40:29.277Z,-4.10
2019-02-06T07:42:57.466Z,-4.08
2019-02-06T07:45:25.649Z,-4.04
2019-02-06T07:47:53.837Z,-3.99
2019-02-06T07:50:30.357Z,-3.97
2019-02-06T07:52:58.828Z,-3.95
2019-02-06T07:55:27.011Z,-3.95
2019-02-06T07:57:55.202Z,-3.94
2019-02-06T08:00:23.386Z,-3.92
2019-02-06T08:02:52.013Z,-3.87
2019-02-06T08:05:21.314Z,-3.85
2019-02-06T08:07:49.636Z,-3.84
2019-02-06T08:10:20.166Z,-3.77
2019-02-06T08:12:48.350Z,-3.70
2019-02-06T08:15:17.772Z,-3.68
2019-02-06T08:17:45.964Z,-3.69
2019-02-06T08:20:16.486Z,-3.67
2019-02-06T08:22:44.680Z,-3.67
2019-02-06T08:25:15.639Z,-3.67
2019-02-06T08:27:43.828Z,-3.67
2019-02-06T08:30:20.568Z,-3.69
2019-02-06T08:32:48.769Z,-3.68
2019-02-06T08:35:16.950Z,-3.67
2019-02-06T08:37:45.241Z,-3.61
2019-02-06T08:40:16.160Z,-3.55
2019-02-06T08:42:44.321Z,-3.49
2019-02-06T08:45:15.055Z,-3.41
2019-02-06T08:47:44.331Z,-3.42
2019-02-06T08:50:20.429Z,-3.43
2019-02-06T08:52:48.889Z,-3.43
2019-02-06T08:55:22.261Z,-3.38
2019-02-06T08:57:50.816Z,-3.34
2019-02-06T09:00:24.461Z,-3.31
2019-02-06T09:02:52.655Z,-3.27
2019-02-06T09:05:20.840Z,-3.23
2019-02-06T09:07:49.318Z,-3.22
2019-02-06T09:10:23.485Z,-3.20
2019-02-06T09:12:51.771Z,-3.10
2019-02-06T09:15:19.953Z,-3.07
2019-02-06T09:17:48.135Z,-3.08
2019-02-06T09:20:19.018Z,-3.07
2019-02-06T09:22:47.197Z,-3.03
2019-02-06T09:25:21.075Z,-2.99
2019-02-06T09:27:49.253Z,-2.96
2019-02-06T09:30:19.476Z,-2.93
2019-02-06T09:32:47.657Z,-2.91
2019-02-06T09:35:16.189Z,-2.92
2019-02-06T09:37:44.582Z,-2.91
2019-02-06T09:40:18.056Z,-2.90
2019-02-06T09:42:46.228Z,-2.90
2019-02-06T09:45:14.941Z,-2.90
2019-02-06T09:47:43.124Z,-2.86
2019-02-06T09:50:29.146Z,-2.80
2019-02-06T09:52:57.348Z,-2.77
2019-02-06T09:55:25.538Z,-2.76
2019-02-06T09:57:53.725Z,-2.74
2019-02-06T10:00:27.669Z,-2.74
2019-02-06T10:02:55.860Z,-2.78
2019-02-06T10:05:24.319Z,-2.76
2019-02-06T10:07:52.502Z,-2.77
2019-02-06T10:10:22.428Z,-2.77
2019-02-06T10:12:50.619Z,-2.76
2019-02-06T10:15:21.041Z,-2.75
2019-02-06T10:17:49.294Z,-2.74
2019-02-06T10:20:20.116Z,-2.72
2019-02-06T10:22:48.285Z,-2.66
2019-02-06T10:25:16.465Z,-2.61
2019-02-06T10:27:44.649Z,-2.64
2019-02-06T10:30:18.913Z,-2.60
2019-02-06T10:32:47.100Z,-2.59
2019-02-06T10:35:15.659Z,-2.51
2019-02-06T10:37:43.881Z,-2.51
2019-02-06T10:40:12.279Z,-2.54
2019-02-06T10:42:40.462Z,-2.53
2019-02-06T10:45:16.864Z,-2.52
2019-02-06T10:47:45.063Z,-2.50
2019-02-06T10:50:17.025Z,-2.44
2019-02-06T10:52:48.126Z,-2.41
2019-02-06T10:55:15.117Z,-2.40
2019-02-06T10:57:43.381Z,-2.38
2019-02-06T11:00:17.578Z,-2.41
2019-02-06T11:02:45.881Z,-2.37
2019-02-06T11:05:14.664Z,-2.37
2019-02-06T11:07:42.842Z,-2.33
2019-02-06T11:10:14.069Z,-2.31
2019-02-06T11:12:42.267Z,-2.26
2019-02-06T11:15:11.677Z,-2.28
2019-02-06T11:17:39.873Z,-2.28
2019-02-06T11:20:17.504Z,-2.22
2019-02-06T11:22:45.687Z,-2.16
2019-02-06T11:25:15.404Z,-2.11
2019-02-06T11:27:43.609Z,-2.03
2019-02-06T11:30:14.797Z,-1.98
2019-02-06T11:32:42.986Z,-1.96
2019-02-06T11:35:11.252Z,-2.01
2019-02-06T11:37:39.480Z,-1.98
2019-02-06T11:40:15.386Z,-1.99
2019-02-06T11:42:43.270Z,-1.98
2019-02-06T11:45:16.969Z,-1.95
2019-02-06T11:47:45.804Z,-1.93
2019-02-06T11:50:17.365Z,-1.95
2019-02-06T11:52:45.892Z,-1.92
2019-02-06T11:55:16.830Z,-1.90
2019-02-06T11:57:45.020Z,-1.88
2019-02-06T12:00:17.778Z,-1.94
2019-02-06T12:02:46.233Z,-1.95
2019-02-06T12:05:14.476Z,-1.95
2019-02-06T12:07:42.670Z,-1.86
2019-02-06T12:10:16.574Z,-1.83
2019-02-06T12:12:44.754Z,-1.79
2019-02-06T12:15:19.188Z,-1.77
2019-02-06T12:17:47.376Z,-1.75
2019-02-06T12:20:21.564Z,-1.69
2019-02-06T12:22:49.797Z,-1.67
2019-02-06T12:25:18.520Z,-1.73
2019-02-06T12:27:48.437Z,-1.75
2019-02-06T12:30:22.231Z,-1.79
2019-02-06T12:32:52.326Z,-1.86
2019-02-06T12:35:20.393Z,-1.94
2019-02-06T12:37:48.583Z,-1.97
2019-02-06T12:40:21.673Z,-2.09
2019-02-06T12:42:46.778Z,-2.13
2019-02-06T12:45:17.325Z,-2.16
2019-02-06T12:47:45.507Z,-2.15
2019-02-06T12:50:23.279Z,-2.15
2019-02-06T12:52:51.471Z,-2.15
2019-02-06T12:55:22.571Z,-2.12
2019-02-06T12:57:50.746Z,-2.13
2019-02-06T13:00:24.561Z,-2.09
2019-02-06T13:02:56.349Z,-2.07
2019-02-06T13:05:22.975Z,-2.07
2019-02-06T13:07:51.162Z,-2.05
2019-02-06T13:10:33.234Z,-2.02
2019-02-06T13:12:53.568Z,-2.02
2019-02-06T13:15:21.761Z,-2.09
2019-02-06T13:17:50.362Z,-2.16
2019-02-06T13:20:21.288Z,-2.24
2019-02-06T13:22:49.426Z,-2.25
2019-02-06T13:25:17.612Z,-2.23
2019-02-06T13:27:45.795Z,-2.26
2019-02-06T13:30:17.238Z,-2.25
2019-02-06T13:32:45.809Z,-2.21
2019-02-06T13:35:18.036Z,-2.22
2019-02-06T13:37:46.226Z,-2.27
2019-02-06T13:40:17.511Z,-2.27
2019-02-06T13:42:45.693Z,-2.23
2019-02-06T13:45:16.975Z,-2.15
2019-02-06T13:47:45.532Z,-2.11
2019-02-06T13:50:22.095Z,-2.07
2019-02-06T13:52:45.781Z,-2.11
2019-02-06T13:55:14.802Z,-2.18
2019-02-06T13:57:42.984Z,-2.20
2019-02-06T14:00:22.522Z,-2.17
2019-02-06T14:02:50.898Z,-2.16
2019-02-06T14:05:24.387Z,-2.19
2019-02-06T14:07:53.711Z,-2.23
2019-02-06T14:10:24.199Z,-2.28
2019-02-06T14:12:52.470Z,-2.37
2019-02-06T14:15:23.430Z,-2.40
2019-02-06T14:17:51.813Z,-2.44
2019-02-06T14:20:22.216Z,-2.50
2019-02-06T14:22:56.655Z,-2.56
2019-02-06T14:25:33.784Z,-2.62
2019-02-06T14:28:24.979Z,-2.67
2019-02-06T14:31:22.042Z,-2.72
2019-02-06T14:33:56.182Z,-2.77
2019-02-06T14:36:56.310Z,-2.78
2019-02-06T14:39:45.046Z,-2.74
2019-02-06T14:42:34.185Z,-2.67
2019-02-06T14:45:20.595Z,-2.57
2019-02-06T14:47:57.630Z,-2.58
2019-02-06T14:50:43.989Z,-2.63
2019-02-06T14:53:21.143Z,-2.72
2019-02-06T14:56:15.439Z,-2.78
2019-02-06T14:58:52.671Z,-2.77
2019-02-06T15:01:32.621Z,-2.75
2019-02-06T15:04:15.803Z,-2.77
2019-02-06T15:06:49.291Z,-2.75
2019-02-06T15:09:32.056Z,-2.77
2019-02-06T15:12:09.313Z,-2.78
2019-02-06T15:14:56.042Z,-2.79
2019-02-06T15:17:39.337Z,-2.83
2019-02-06T15:20:19.412Z,-2.94
2019-02-06T15:23:08.149Z,-2.98
2019-02-06T15:25:57.677Z,-3.02
2019-02-06T15:28:43.920Z,-3.09
2019-02-06T15:31:30.395Z,-3.13
2019-02-06T15:34:07.444Z,-3.16
2019-02-06T15:36:50.663Z,-3.24
2019-02-06T15:39:24.933Z,-3.25
2019-02-06T15:41:56.419Z,-3.23
2019-02-06T15:44:40.020Z,-3.25
2019-02-06T15:47:14.124Z,-3.26
2019-02-06T15:49:46.741Z,-3.28
2019-02-06T15:52:24.117Z,-3.30
2019-02-06T15:55:12.118Z,-3.33
2019-02-06T15:57:46.249Z,-3.34
2019-02-06T16:00:26.677Z,-3.36
2019-02-06T16:03:00.690Z,-3.38
2019-02-06T16:05:36.449Z,-3.38
2019-02-06T16:08:13.708Z,-3.38
2019-02-06T16:11:04.369Z,-3.37
2019-02-06T16:13:38.772Z,-3.36
2019-02-06T16:16:26.825Z,-3.37
2019-02-06T16:19:13.131Z,-3.38
2019-02-06T16:21:53.039Z,-3.36
2019-02-06T16:24:32.736Z,-3.34
2019-02-06T16:27:24.777Z,-3.36
2019-02-06T16:30:14.262Z,-3.40
2019-02-06T16:32:51.289Z,-3.39
2019-02-06T16:35:22.816Z,-3.40
2019-02-06T16:38:18.345Z,-3.40
2019-02-06T16:40:52.326Z,-3.43
2019-02-06T16:43:27.090Z,-3.42
2019-02-06T16:46:19.891Z,-3.44
2019-02-06T16:48:56.888Z,-3.45
2019-02-06T16:51:37.000Z,-3.48
2019-02-06T16:54:36.964Z,-3.51
2019-02-06T16:57:14.103Z,-3.51
2019-02-06T17:00:03.801Z,-3.47
2019-02-06T17:02:56.604Z,-3.48
2019-02-06T17:05:46.035Z,-3.52
2019-02-06T17:08:23.240Z,-3.53
2019-02-06T17:11:06.156Z,-3.52
2019-02-06T17:13:40.489Z,-3.52
2019-02-06T17:16:14.933Z,-3.54
2019-02-06T17:18:52.152Z,-3.55
2019-02-06T17:21:29.003Z,-3.54
2019-02-06T17:24:12.598Z,-3.55
2019-02-06T17:26:49.799Z,-3.58
2019-02-06T17:29:36.317Z,-3.58
2019-02-06T17:32:10.168Z,-3.59
2019-02-06T17:34:47.381Z,-3.59
2019-02-06T17:37:33.790Z,-3.58
2019-02-06T17:40:32.141Z,-3.56
2019-02-06T17:43:30.695Z,-3.55
2019-02-06T17:46:21.366Z,-3.56
2019-02-06T17:49:10.537Z,-3.56
2019-02-06T17:51:41.973Z,-3.56
2019-02-06T17:54:19.304Z,-3.56
2019-02-06T17:56:47.526Z,-3.59
2019-02-06T17:59:15.716Z,-3.63
2019-02-06T18:01:43.903Z,-3.68
2019-02-06T18:04:12.113Z,-3.75
2019-02-06T18:06:41.269Z,-3.83
2019-02-06T18:09:11.198Z,-3.85
2019-02-06T18:11:39.383Z,-3.86
2019-02-06T18:14:07.583Z,-3.85
2019-02-06T18:16:35.761Z,-3.84
2019-02-06T18:19:04.044Z,-3.87
2019-02-06T18:21:32.226Z,-3.89
2019-02-06T18:24:00.419Z,-3.88
2019-02-06T18:26:29.156Z,-3.83
2019-02-06T18:28:57.345Z,-3.82
2019-02-06T18:31:25.525Z,-3.84
2019-02-06T18:33:53.712Z,-3.87
2019-02-06T18:36:21.902Z,-3.89
2019-02-06T18:38:52.051Z,-3.92
2019-02-06T18:41:20.242Z,-3.92
2019-02-06T18:43:48.438Z,-3.94
2019-02-06T18:46:16.906Z,-3.97
2019-02-06T18:48:45.098Z,-3.97
2019-02-06T18:51:15.265Z,-3.96
2019-02-06T18:53:43.448Z,-3.92
2019-02-06T18:56:14.715Z,-3.93
2019-02-06T18:58:43.901Z,-3.92
2019-02-06T19:01:12.097Z,-3.90
2019-02-06T19:03:42.742Z,-3.91
2019-02-06T19:06:11.390Z,-3.91
2019-02-06T19:08:40.090Z,-3.90
2019-02-06T19:11:08.468Z,-3.90
2019-02-06T19:13:36.639Z,-3.91
2019-02-06T19:16:04.837Z,-3.92
2019-02-06T19:18:33.014Z,-3.91
2019-02-06T19:21:01.201Z,-3.90
2019-02-06T19:23:29.388Z,-3.89
2019-02-06T19:25:57.853Z,-3.92
2019-02-06T19:28:26.067Z,-3.90
2019-02-06T19:30:55.595Z,-3.89
2019-02-06T19:33:23.892Z,-3.90
2019-02-06T19:35:52.078Z,-3.93
2019-02-06T19:38:20.257Z,-3.97
2019-02-06T19:40:48.440Z,-4.05
2019-02-06T19:43:16.820Z,-4.08
2019-02-06T19:45:44.996Z,-4.09
2019-02-06T19:48:16.326Z,-4.13
2019-02-06T19:50:44.627Z,-4.14
2019-02-06T19:53:12.806Z,-4.16
2019-02-06T19:55:40.990Z,-4.25
2019-02-06T19:58:10.208Z,-4.24
2019-02-06T20:00:38.403Z,-4.24
2019-02-06T20:03:08.181Z,-4.23
2019-02-06T20:05:36.553Z,-4.22
2019-02-06T20:08:05.475Z,-4.20
2019-02-06T20:10:45.725Z,-4.21
2019-02-06T20:13:14.720Z,-4.19
2019-02-06T20:15:42.985Z,-4.17
2019-02-06T20:18:14.403Z,-4.15
2019-02-06T20:20:42.677Z,-4.14
2019-02-06T20:23:10.864Z,-4.19
2019-02-06T20:25:39.041Z,-4.26
2019-02-06T20:28:07.292Z,-4.28
2019-02-06T20:30:35.734Z,-4.29
2019-02-06T20:33:03.924Z,-4.32
2019-02-06T20:35:32.183Z,-4.35
2019-02-06T20:38:00.367Z,-4.35
2019-02-06T20:40:33.718Z,-4.34
2019-02-06T20:43:01.903Z,-4.34
2019-02-06T20:45:30.083Z,-4.37
2019-02-06T20:47:59.191Z,-4.39
2019-02-06T20:50:30.763Z,-4.41
2019-02-06T20:52:59.322Z,-4.47
2019-02-06T20:55:27.501Z,-4.41
2019-02-06T20:57:55.693Z,-4.36
2019-02-06T21:00:33.130Z,-4.37
2019-02-06T21:03:01.384Z,-4.34
2019-02-06T21:05:29.565Z,-4.34
2019-02-06T21:07:58.133Z,-4.32
2019-02-06T21:10:31.583Z,-4.28
2019-02-06T21:12:59.938Z,-4.26
2019-02-06T21:15:28.160Z,-4.24
2019-02-06T21:17:56.360Z,-4.23
2019-02-06T21:20:25.075Z,-4.26
2019-02-06T21:22:53.263Z,-4.29
2019-02-06T21:25:23.065Z,-4.28
2019-02-06T21:27:51.534Z,-4.26
2019-02-06T21:30:28.646Z,-4.23
2019-02-06T21:32:56.831Z,-4.25
2019-02-06T21:35:25.023Z,-4.22
2019-02-06T21:37:53.231Z,-4.23
2019-02-06T21:40:32.803Z,-4.26
2019-02-06T21:43:01.077Z,-4.29
2019-02-06T21:45:29.343Z,-4.32
2019-02-06T21:47:57.532Z,-4.29
2019-02-06T21:50:25.786Z,-4.31
2019-02-06T21:52:55.444Z,-4.30
2019-02-06T21:55:25.042Z,-4.28
2019-02-06T21:57:53.229Z,-4.26
2019-02-06T22:00:26.849Z,-4.24
2019-02-06T22:02:55.031Z,-4.24
2019-02-06T22:05:29.306Z,-4.25
2019-02-06T22:08:06.418Z,-4.25
2019-02-06T22:10:34.610Z,-4.27
2019-02-06T22:13:02.809Z,-4.29
2019-02-06T22:15:31.925Z,-4.30
2019-02-06T22:18:00.170Z,-4.31
2019-02-06T22:20:28.629Z,-4.33
2019-02-06T22:22:57.734Z,-4.36
2019-02-06T22:25:25.947Z,-4.38
2019-02-06T22:27:54.143Z,-4.41
2019-02-06T22:30:29.600Z,-4.43
2019-02-06T22:32:57.797Z,-4.43
2019-02-06T22:35:26.174Z,-4.44
2019-02-06T22:37:54.363Z,-4.50
2019-02-06T22:40:27.069Z,-4.42
2019-02-06T22:42:55.260Z,-4.44
2019-02-06T22:45:29.494Z,-4.43
2019-02-06T22:47:57.677Z,-4.44
2019-02-06T22:50:27.759Z,-4.47
2019-02-06T22:52:55.897Z,-4.52
2019-02-06T22:55:24.087Z,-4.58
2019-02-06T22:57:52.274Z,-4.58
2019-02-06T23:00:47.952Z,-4.58
2019-02-06T23:03:19.563Z,-4.55
2019-02-06T23:05:47.854Z,-4.55
2019-02-06T23:08:16.019Z,-4.57
2019-02-06T23:10:44.213Z,-4.58
2019-02-06T23:13:12.394Z,-4.57
2019-02-06T23:15:40.586Z,-4.57
2019-02-06T23:18:08.766Z,-4.56
2019-02-06T23:20:37.056Z,-4.56
2019-02-06T23:23:05.254Z,-4.57
2019-02-06T23:25:33.441Z,-4.59
2019-02-06T23:28:01.627Z,-4.62
2019-02-06T23:30:30.117Z,-4.67
2019-02-06T23:32:58.299Z,-4.71
2019-02-06T23:35:26.478Z,-4.75
2019-02-06T23:37:54.681Z,-4.76
2019-02-06T23:40:22.872Z,-4.82
2019-02-06T23:42:51.052Z,-4.87
2019-02-06T23:45:19.257Z,-4.88
2019-02-06T23:47:47.438Z,-4.88
2019-02-06T23:50:17.255Z,-4.91
2019-02-06T23:52:45.443Z,-4.91
2019-02-06T23:55:13.624Z,-4.94
2019-02-06T23:57:41.804Z,-4.97
